Time;durP1;ratioP1;P1;durP2;ratioP2;P2;SDS_P1;SDS_P2;PMS_P1;PMS_P2;Temp;Humidity;BMP_temperature;BMP_pressure;BME280_temperature;BME280_humidity;BME280_pressure;Samples;Min_cycle;Max_cycle;Signal;HPM_P1;HPM_P2
2023/07/03 00:00:29;;;;;;;13.97;5.47;;;;;;;14.99;64.80;100847.63;5327333;28;20058;-81
2023/07/03 00:03:01;;;;;;;13.53;5.57;;;;;;;14.97;65.08;100852.06;5327370;28;20034;-80
2023/07/03 00:05:35;;;;;;;16.55;4.78;;;;;;;14.95;65.79;100849.47;5326699;28;20034;-81
2023/07/03 00:08:06;;;;;;;14.75;5.10;;;;;;;14.95;65.61;100852.09;5326136;28;20023;-80
2023/07/03 00:10:37;;;;;;;15.80;5.10;;;;;;;14.94;65.42;100847.75;5326169;28;20073;-79
2023/07/03 00:13:09;;;;;;;13.80;5.83;;;;;;;14.89;65.85;100847.91;5326277;28;20042;-81
2023/07/03 00:15:41;;;;;;;11.63;4.38;;;;;;;14.96;66.15;100840.72;5326302;27;20024;-79
2023/07/03 00:18:12;;;;;;;12.47;5.53;;;;;;;14.94;65.65;100840.75;5326044;28;20031;-79
2023/07/03 00:20:45;;;;;;;16.90;5.10;;;;;;;14.90;66.07;100836.50;5326212;28;20028;-79
2023/07/03 00:23:16;;;;;;;19.80;5.95;;;;;;;14.90;66.44;100843.53;5327182;28;20031;-80
2023/07/03 00:25:48;;;;;;;16.17;5.50;;;;;;;14.87;66.48;100846.22;5326495;28;20035;-82
2023/07/03 00:28:20;;;;;;;15.35;5.38;;;;;;;14.80;66.81;100848.19;5324960;28;20046;-81
2023/07/03 00:30:51;;;;;;;20.43;5.90;;;;;;;14.86;67.37;100836.63;5324009;28;20070;-80
2023/07/03 00:33:23;;;;;;;18.70;5.50;;;;;;;14.77;67.54;100843.03;5325585;28;20093;-81
2023/07/03 00:35:54;;;;;;;22.27;5.50;;;;;;;14.84;68.31;100836.66;5325617;28;20024;-80
2023/07/03 00:38:25;;;;;;;19.13;5.87;;;;;;;14.77;67.70;100838.63;5325572;28;20496;-79
2023/07/03 00:40:57;;;;;;;15.23;5.47;;;;;;;14.81;67.84;100828.91;5325567;28;20069;-79
2023/07/03 00:43:30;;;;;;;20.60;5.67;;;;;;;14.79;68.25;100841.19;5325643;28;20063;-80
2023/07/03 00:46:01;;;;;;;23.90;5.70;;;;;;;14.74;68.11;100833.47;5324119;28;20058;-79
2023/07/03 00:48:33;;;;;;;17.70;5.57;;;;;;;14.73;68.79;100839.63;5325326;28;20118;-80
2023/07/03 00:51:05;;;;;;;22.60;5.97;;;;;;;14.71;68.21;100841.41;5325552;28;20508;-80
2023/07/03 00:53:36;;;;;;;20.33;6.73;;;;;;;14.69;68.66;100824.03;5325607;28;20024;-81
2023/07/03 00:56:08;;;;;;;15.63;5.33;;;;;;;14.72;69.24;100835.28;5325406;28;20285;-81
2023/07/03 00:58:40;;;;;;;18.15;4.95;;;;;;;14.69;69.25;100835.38;5325140;28;20028;-79
2023/07/03 01:01:36;;;;;;;25.73;7.67;;;;;;;14.74;68.98;100835.25;5325596;28;20035;-79
2023/07/03 01:04:11;;;;;;;18.45;5.90;;;;;;;14.67;69.38;100831.94;5325507;28;20437;-83
2023/07/03 01:07:01;;;;;;;17.40;5.97;;;;;;;14.64;69.56;100829.41;5325286;28;20024;-79
2023/07/03 01:09:43;;;;;;;24.60;5.35;;;;;;;14.59;69.80;100823.41;5325383;28;20020;-79
2023/07/03 01:12:16;;;;;;;18.13;5.43;;;;;;;14.60;70.28;100825.13;5325385;28;20027;-78
2023/07/03 01:14:48;;;;;;;19.20;5.82;;;;;;;14.59;70.96;100821.66;5325250;28;20096;-79
2023/07/03 01:17:21;;;;;;;21.90;7.60;;;;;;;14.53;70.79;100827.03;5327672;28;20040;-79
2023/07/03 01:19:54;;;;;;;19.95;6.22;;;;;;;14.53;71.24;100824.41;5329885;28;20036;-80
2023/07/03 01:22:44;;;;;;;21.80;7.13;;;;;;;14.49;71.84;100828.06;5329484;28;20409;-77
2023/07/03 01:25:19;;;;;;;23.35;6.60;;;;;;;14.42;72.05;100821.25;5329445;28;20107;-80
2023/07/03 01:27:53;;;;;;;19.80;6.53;;;;;;;14.38;72.21;100823.09;5329450;28;20028;-81
2023/07/03 01:30:28;;;;;;;23.15;6.20;;;;;;;14.36;72.66;100829.28;5328659;27;20494;-80
2023/07/03 01:33:03;;;;;;;23.65;6.43;;;;;;;14.37;72.65;100831.84;5329593;28;20061;-80
2023/07/03 01:35:34;;;;;;;20.85;6.22;;;;;;;14.26;73.52;100822.56;5329120;28;20035;-80
2023/07/03 01:38:07;;;;;;;28.47;6.93;;;;;;;14.26;73.86;100822.56;5329108;28;20028;-80
2023/07/03 01:40:39;;;;;;;25.13;6.22;;;;;;;14.26;73.68;100815.56;5329123;28;20028;-78
2023/07/03 01:43:12;;;;;;;23.13;6.40;;;;;;;14.22;74.31;100821.81;5329109;28;20024;-78
2023/07/03 01:45:45;;;;;;;22.45;6.35;;;;;;;14.14;74.91;100827.25;5328978;28;20487;-80
2023/07/03 01:48:17;;;;;;;19.80;6.40;;;;;;;14.15;74.87;100813.25;5328820;28;20030;-79
2023/07/03 01:50:48;;;;;;;19.03;5.33;;;;;;;14.16;75.90;100820.19;5328670;28;20031;-77
2023/07/03 01:53:31;;;;;;;22.37;7.30;;;;;;;14.10;75.33;100815.13;5328630;28;20032;-80
2023/07/03 01:56:13;;;;;;;23.88;6.25;;;;;;;14.15;75.55;100810.63;5328661;28;20107;-78
2023/07/03 01:58:47;;;;;;;22.38;5.82;;;;;;;14.15;76.14;100813.25;5327992;28;20050;-77
2023/07/03 02:01:32;;;;;;;25.58;6.60;;;;;;;14.07;76.04;100815.22;5328784;28;20032;-78
2023/07/03 02:04:09;;;;;;;20.63;6.25;;;;;;;14.08;76.75;100810.84;5327426;28;20445;-78
2023/07/03 02:06:44;;;;;;;25.48;6.55;;;;;;;14.03;76.95;100813.56;5328809;28;20363;-80
2023/07/03 02:09:16;;;;;;;22.27;6.68;;;;;;;13.96;77.59;100810.25;5328588;28;20028;-79
2023/07/03 02:11:48;;;;;;;22.60;6.95;;;;;;;13.91;78.17;100816.50;5328738;28;20152;-81
2023/07/03 02:14:20;;;;;;;23.48;6.45;;;;;;;13.93;77.83;100810.34;5328487;27;20053;-77
2023/07/03 02:16:52;;;;;;;21.57;7.40;;;;;;;13.90;78.62;100815.66;5327021;28;20118;-79
2023/07/03 02:19:33;;;;;;;;;;;;;;;13.89;77.82;100813.06;5328606;28;20019;-79
2023/07/03 02:22:05;;;;;;;26.05;8.63;;;;;;;13.79;79.78;100812.47;5328226;28;20422;-80
2023/07/03 02:24:37;;;;;;;25.52;7.35;;;;;;;13.72;80.50;100813.50;5328080;28;20032;-80
2023/07/03 02:27:08;;;;;;;22.93;6.90;;;;;;;13.65;81.06;100797.97;5328078;28;20433;-80
2023/07/03 02:29:40;;;;;;;26.73;8.47;;;;;;;13.63;81.88;100799.72;5326755;28;20055;-79
2023/07/03 02:32:12;;;;;;;25.77;7.67;;;;;;;13.59;82.35;100805.13;5330278;28;20030;-79
2023/07/03 02:34:43;;;;;;;22.90;7.05;;;;;;;13.57;82.76;100804.28;5328937;28;20036;-80
2023/07/03 02:37:15;;;;;;;33.93;7.60;;;;;;;13.56;83.06;100803.44;5328068;28;20084;-78
2023/07/03 02:39:46;;;;;;;25.10;8.10;;;;;;;13.48;83.58;100800.97;5329043;28;20028;-80
2023/07/03 02:42:17;;;;;;;29.10;7.73;;;;;;;13.47;84.05;100803.66;5328277;28;20088;-81
2023/07/03 02:44:49;;;;;;;25.20;7.17;;;;;;;13.43;84.89;100799.41;5327817;28;20034;-82
2023/07/03 02:47:21;;;;;;;29.10;8.30;;;;;;;13.40;85.32;100797.69;5328001;28;20028;-81
2023/07/03 02:49:52;;;;;;;28.27;7.80;;;;;;;13.37;85.62;100794.31;5328027;28;20023;-82
2023/07/03 02:52:23;;;;;;;27.47;8.00;;;;;;;13.34;86.23;100789.13;5327627;28;20035;-80
2023/07/03 02:54:55;;;;;;;22.97;6.97;;;;;;;13.27;86.98;100796.25;5327664;28;20031;-80
2023/07/03 02:57:27;;;;;;;29.30;8.63;;;;;;;13.26;86.87;100787.50;5327452;28;20081;-80
2023/07/03 02:59:58;;;;;;;24.60;8.60;;;;;;;13.21;87.57;100788.53;5327285;28;20034;-79
2023/07/03 03:02:29;;;;;;;26.07;7.47;;;;;;;13.17;88.36;100784.25;5327382;28;20027;-79
2023/07/03 03:05:01;;;;;;;20.53;6.87;;;;;;;13.12;88.91;100789.59;5327185;28;20110;-79
2023/07/03 03:07:32;;;;;;;29.03;7.63;;;;;;;13.12;88.98;100795.72;5327188;28;20474;-79
2023/07/03 03:10:04;;;;;;;26.83;7.17;;;;;;;13.08;89.10;100794.03;5327531;28;20032;-80
2023/07/03 03:12:35;;;;;;;27.95;8.15;;;;;;;13.10;89.60;100794.00;5309147;28;20043;-81
2023/07/03 03:15:07;;;;;;;26.37;8.40;;;;;;;13.10;90.13;100794.00;5327320;28;20027;-79
2023/07/03 03:17:38;;;;;;;27.33;9.43;;;;;;;13.08;90.60;100786.19;5327121;28;20039;-79
2023/07/03 03:20:13;;;;;;;29.50;8.03;;;;;;;13.15;90.29;100784.28;5325530;28;20062;-79
2023/07/03 03:22:45;;;;;;;29.08;8.25;;;;;;;13.15;90.90;100784.28;5325912;28;20051;-80
2023/07/03 03:25:16;;;;;;;25.03;8.80;;;;;;;13.19;90.72;100779.88;5325836;28;20431;-78
2023/07/03 03:27:48;;;;;;;30.03;8.47;;;;;;;13.20;90.81;100776.34;5326955;28;20474;-77
2023/07/03 03:30:20;;;;;;;32.17;9.40;;;;;;;13.17;91.07;100786.88;5326511;28;20130;-77
2023/07/03 03:32:51;;;;;;;29.67;7.93;;;;;;;13.12;91.27;100782.63;5326435;28;20031;-77
2023/07/03 03:35:23;;;;;;;32.23;7.87;;;;;;;13.11;92.18;100785.28;5326694;28;20035;-77
2023/07/03 03:37:54;;;;;;;31.73;7.90;;;;;;;13.09;92.51;100787.06;5326696;28;20031;-77
2023/07/03 03:40:25;;;;;;;28.37;7.93;;;;;;;13.09;92.92;100792.31;5326356;28;20019;-78
2023/07/03 03:42:57;;;;;;;31.27;9.63;;;;;;;13.08;93.04;100791.44;5326427;28;20028;-79
2023/07/03 03:45:28;;;;;;;34.23;9.43;;;;;;;13.05;93.61;100777.56;5326587;28;20031;-79
2023/07/03 03:48:00;;;;;;;25.83;7.57;;;;;;;13.04;93.50;100786.31;5326942;28;20035;-78
2023/07/03 03:50:31;;;;;;;31.87;7.43;;;;;;;13.01;94.04;100789.88;5326496;28;20023;-80
2023/07/03 03:53:02;;;;;;;28.90;8.77;;;;;;;13.11;93.95;100787.91;5326532;28;20107;-79
2023/07/03 03:55:34;;;;;;;25.90;7.73;;;;;;;13.08;94.22;100777.50;5325051;28;20035;-79
2023/07/03 03:58:05;;;;;;;29.70;7.77;;;;;;;13.07;94.55;100778.38;5326544;28;20024;-80
2023/07/03 04:00:37;;;;;;;37.67;8.13;;;;;;;13.02;94.55;100788.94;5331269;28;20081;-78
2023/07/03 04:03:08;;;;;;;29.00;9.07;;;;;;;13.00;95.25;100784.66;5342496;28;20028;-79
2023/07/03 04:05:41;;;;;;;30.40;8.73;;;;;;;13.03;95.27;100792.44;5335227;28;20281;-79
2023/07/03 04:08:13;;;;;;;24.85;7.15;;;;;;;13.00;95.76;100793.38;5326062;28;20050;-79
2023/07/03 04:10:44;;;;;;;29.07;8.93;;;;;;;12.99;95.70;100788.16;5325090;28;20032;-77
2023/07/03 04:13:16;;;;;;;29.73;7.63;;;;;;;13.03;96.09;100792.44;5324894;28;20269;-78
2023/07/03 04:15:53;;;;;;;31.40;9.00;;;;;;;13.08;95.99;100788.81;5326427;28;20428;-79
2023/07/03 04:18:25;;;;;;;28.27;9.05;;;;;;;13.12;96.08;100787.84;5326014;28;20027;-78
2023/07/03 04:20:57;;;;;;;30.73;8.63;;;;;;;13.09;96.21;100793.16;5325864;28;20382;-79
2023/07/03 04:23:29;;;;;;;33.80;8.57;;;;;;;13.10;96.73;100794.00;5324744;28;20028;-75
2023/07/03 04:26:02;;;;;;;37.00;10.35;;;;;;;13.14;96.27;100790.44;5325696;28;20027;-77
2023/07/03 04:28:33;;;;;;;27.92;9.35;;;;;;;13.26;96.54;100794.53;5325635;28;20128;-77
2023/07/03 04:31:06;;;;;;;27.77;7.77;;;;;;;13.32;95.87;100786.53;5325181;28;20070;-78
2023/07/03 04:33:37;;;;;;;25.38;8.10;;;;;;;13.29;96.34;100783.97;5326164;28;20102;-77
2023/07/03 04:36:11;;;;;;;34.00;9.03;;;;;;;13.24;96.27;100785.84;5325567;28;20565;-78
2023/07/03 04:38:43;;;;;;;27.17;8.52;;;;;;;13.23;96.23;100787.59;5325928;28;20040;-78
2023/07/03 04:41:15;;;;;;;29.00;9.17;;;;;;;13.21;96.69;100792.00;5325564;28;20027;-78
2023/07/03 04:43:48;;;;;;;41.13;9.65;;;;;;;13.26;96.84;100787.50;5325394;28;20475;-78
2023/07/03 04:46:25;;;;;;;27.90;8.43;;;;;;;13.36;96.65;100792.56;5324297;28;20036;-77
2023/07/03 04:48:59;;;;;;;27.92;8.45;;;;;;;13.44;96.30;100794.13;5324765;28;20023;-77
2023/07/03 04:51:32;;;;;;;28.65;8.32;;;;;;;13.53;96.20;100792.16;5307015;28;20040;-78
2023/07/03 04:54:03;;;;;;;26.85;8.05;;;;;;;13.57;95.27;100806.88;5304182;28;20068;-78
2023/07/03 04:56:35;;;;;;;19.83;7.97;;;;;;;13.64;94.76;100800.63;5304075;28;20036;-78
2023/07/03 04:59:09;;;;;;;31.77;8.40;;;;;;;13.67;94.82;100805.78;5303849;28;20040;-78
2023/07/03 05:01:43;;;;;;;20.90;7.40;;;;;;;13.65;95.10;100805.81;5304249;28;20043;-78
2023/07/03 05:04:15;;;;;;;27.92;8.15;;;;;;;13.68;94.62;100813.59;5304045;28;20052;-77
2023/07/03 05:06:47;;;;;;;23.17;7.30;;;;;;;13.78;95.11;100806.38;5303206;28;20091;-77
2023/07/03 05:09:18;;;;;;;27.40;8.47;;;;;;;13.86;93.79;100820.13;5304253;28;20028;-77
2023/07/03 05:11:49;;;;;;;22.33;7.70;;;;;;;13.97;92.99;100811.97;5303093;28;20044;-78
2023/07/03 05:14:21;;;;;;;30.43;8.70;;;;;;;14.09;92.32;100813.41;5304764;28;20452;-77
2023/07/03 05:16:52;;;;;;;33.90;8.77;;;;;;;14.16;91.95;100825.44;5304223;28;20070;-76
2023/07/03 05:19:23;;;;;;;27.67;9.10;;;;;;;14.27;91.58;100824.31;5304229;28;20036;-78
2023/07/03 05:21:55;;;;;;;31.03;8.20;;;;;;;14.35;90.70;100832.81;5304687;28;20477;-82
2023/07/03 05:24:26;;;;;;;28.60;8.87;;;;;;;14.39;90.30;100829.19;5304267;28;20032;-80
2023/07/03 05:26:57;;;;;;;24.13;8.57;;;;;;;14.56;90.58;100826.97;5302917;28;20063;-78
2023/07/03 05:29:31;;;;;;;26.40;8.43;;;;;;;14.65;89.23;100832.88;5301847;28;20411;-79
2023/07/03 05:32:03;;;;;;;25.55;9.30;;;;;;;14.72;88.31;100845.78;5304041;28;20077;-80
2023/07/03 05:34:37;;;;;;;23.17;8.55;;;;;;;14.81;87.81;100851.66;5303951;28;20024;-80
2023/07/03 05:37:09;;;;;;;29.02;8.57;;;;;;;14.87;88.35;100839.22;5303770;28;20024;-80
2023/07/03 05:39:40;;;;;;;19.70;7.37;;;;;;;14.94;87.87;100842.50;5305231;28;20491;-78
2023/07/03 05:42:13;;;;;;;26.37;8.13;;;;;;;14.91;87.05;100846.09;5307590;28;20092;-78
2023/07/03 05:44:46;;;;;;;30.95;8.77;;;;;;;14.89;86.84;100847.03;5311456;28;20039;-79
2023/07/03 05:47:17;;;;;;;27.17;8.60;;;;;;;14.91;86.84;100845.25;5310145;28;20028;-79
2023/07/03 05:49:49;;;;;;;26.37;8.53;;;;;;;14.95;86.29;100844.22;5308466;28;20169;-81
2023/07/03 05:52:20;;;;;;;24.63;8.25;;;;;;;14.96;86.21;100845.97;5310391;28;20497;-80
2023/07/03 05:54:52;;;;;;;24.77;7.23;;;;;;;15.08;85.88;100849.97;5309106;28;20025;-77
2023/07/03 05:57:24;;;;;;;28.60;8.27;;;;;;;15.08;85.65;100855.22;5306341;28;20090;-77
2023/07/03 05:59:55;;;;;;;22.17;7.00;;;;;;;14.97;85.19;100850.28;5306509;28;20032;-80
2023/07/03 06:02:26;;;;;;;23.83;8.73;;;;;;;15.05;86.97;100852.69;5310151;28;20051;-80
2023/07/03 06:04:58;;;;;;;22.87;7.80;;;;;;;15.12;85.69;100857.72;5311280;28;20039;-79
2023/07/03 06:07:30;;;;;;;33.67;8.70;;;;;;;15.19;85.35;100858.38;5311167;28;20551;-79
2023/07/03 06:10:02;;;;;;;22.73;8.07;;;;;;;15.20;84.66;100852.22;5310481;28;20028;-80
2023/07/03 06:12:33;;;;;;;24.55;7.35;;;;;;;15.25;84.74;100852.94;5314224;28;20087;-80
2023/07/03 06:15:05;;;;;;;28.70;8.83;;;;;;;15.30;83.99;100863.31;5315164;28;20223;-79
2023/07/03 06:17:38;;;;;;;28.30;8.95;;;;;;;15.41;84.15;100860.34;5315809;28;20360;-80
2023/07/03 06:20:10;;;;;;;20.67;8.45;;;;;;;15.44;83.36;100853.22;5314874;28;20032;-78
2023/07/03 06:22:42;;;;;;;25.83;7.82;;;;;;;15.51;83.76;100856.50;5315881;28;20032;-81
2023/07/03 06:25:14;;;;;;;24.58;7.05;;;;;;;15.59;82.21;100851.00;5313114;28;20032;-81
2023/07/03 06:27:45;;;;;;;18.97;7.03;;;;;;;15.67;82.63;100862.13;5309317;28;20554;-79
2023/07/03 06:30:17;;;;;;;24.60;8.43;;;;;;;15.78;81.84;100857.41;5310845;28;20117;-80
2023/07/03 06:32:49;;;;;;;24.35;7.20;;;;;;;15.64;81.04;100863.06;5313603;28;20030;-84
2023/07/03 06:35:20;;;;;;;22.47;7.27;;;;;;;15.83;80.45;100860.75;5310627;28;20118;-80
2023/07/03 06:37:53;;;;;;;26.00;8.20;;;;;;;15.91;79.45;100859.63;5309572;28;20035;-81
2023/07/03 06:40:25;;;;;;;;;;;;;;;16.11;79.82;100861.56;5308805;28;20035;-79
2023/07/03 06:42:56;;;;;;;24.52;6.72;;;;;;;16.06;78.36;100864.34;5310859;28;19908;-82
2023/07/03 06:45:27;;;;;;;20.13;6.30;;;;;;;15.97;77.90;100862.03;5309554;28;20040;-80
2023/07/03 06:47:59;;;;;;;24.30;7.03;;;;;;;16.12;79.85;100850.16;5310167;28;20467;-82
2023/07/03 06:50:30;;;;;;;28.00;6.67;;;;;;;16.14;76.88;100849.16;5309670;28;20368;-81
2023/07/03 06:53:02;;;;;;;23.37;6.60;;;;;;;16.39;78.63;100841.28;5307182;28;20044;-82
2023/07/03 06:55:33;;;;;;;21.47;6.60;;;;;;;16.51;76.12;100839.13;5308643;28;20062;-80
2023/07/03 06:58:05;;;;;;;27.43;7.47;;;;;;;16.59;75.27;100847.59;5308832;28;20048;-80
2023/07/03 07:00:36;;;;;;;22.47;7.37;;;;;;;16.78;74.99;100858.28;5308801;28;20540;-80
2023/07/03 07:03:07;;;;;;;15.83;5.83;;;;;;;16.63;74.83;100853.59;5308837;28;20063;-82
2023/07/03 07:05:39;;;;;;;19.27;6.50;;;;;;;16.55;75.56;100851.22;5308486;28;20028;-82
2023/07/03 07:08:16;;;;;;;17.40;7.10;;;;;;;16.69;74.43;100867.38;5305776;28;20028;-82
2023/07/03 07:10:47;;;;;;;19.17;8.10;;;;;;;16.81;75.06;100870.47;5307093;28;20422;-81
2023/07/03 07:13:19;;;;;;;20.50;7.97;;;;;;;16.86;73.20;100876.47;5306897;28;20036;-82
2023/07/03 07:15:50;;;;;;;25.17;6.30;;;;;;;16.94;73.33;100869.13;5305987;28;20068;-80
2023/07/03 07:18:22;;;;;;;28.60;8.87;;;;;;;16.65;72.50;100865.78;5307830;28;20056;-84
2023/07/03 07:20:54;;;;;;;23.38;7.20;;;;;;;16.59;72.30;100866.00;5308323;28;20024;-83
2023/07/03 07:23:25;;;;;;;20.90;6.73;;;;;;;16.33;72.43;100880.94;5309774;28;20024;-85
2023/07/03 07:25:57;;;;;;;28.03;8.17;;;;;;;16.36;72.73;100870.31;5307527;28;20086;-84
2023/07/03 07:28:28;;;;;;;26.63;6.97;;;;;;;16.64;72.24;100865.84;5306577;28;20491;-81
2023/07/03 07:30:59;;;;;;;21.40;6.13;;;;;;;16.77;72.82;100865.31;5306297;28;20048;-80
2023/07/03 07:33:32;;;;;;;;;;;;;;;16.81;71.26;100884.50;5289239;28;20054;-82
2023/07/03 07:36:04;;;;;;;23.40;5.65;;;;;;;16.89;70.76;100865.81;5304879;28;19912;-80
2023/07/03 07:38:35;;;;;;;27.25;6.63;;;;;;;16.94;71.11;100867.34;5305768;28;20055;-78
2023/07/03 07:41:07;;;;;;;18.10;6.77;;;;;;;16.89;69.65;100879.84;5306504;28;20035;-78
2023/07/03 07:43:38;;;;;;;20.77;6.43;;;;;;;16.99;69.08;100880.34;5306480;28;20024;-84
2023/07/03 07:46:10;;;;;;;22.20;5.60;;;;;;;17.17;67.66;100877.94;5306780;28;20099;-82
2023/07/03 07:48:41;;;;;;;23.70;7.20;;;;;;;17.38;66.48;100887.59;5309733;28;20036;-83
2023/07/03 07:51:13;;;;;;;20.52;5.72;;;;;;;17.81;65.77;100883.25;5307244;28;20055;-80
2023/07/03 07:53:45;;;;;;;23.05;6.88;;;;;;;17.67;63.95;100880.31;5307861;28;20475;-80
2023/07/03 07:56:16;;;;;;;21.40;5.63;;;;;;;17.72;63.63;100886.25;5306788;28;20039;-80
2023/07/03 07:58:48;;;;;;;23.77;6.70;;;;;;;17.63;63.06;100898.03;5306549;28;20027;-79
2023/07/03 08:01:20;;;;;;;19.55;5.60;;;;;;;17.58;61.60;100897.38;5305653;28;20287;-84
2023/07/03 08:03:52;;;;;;;15.77;5.18;;;;;;;17.67;61.68;100898.75;5306598;28;20036;-81
2023/07/03 08:06:23;;;;;;;18.10;4.73;;;;;;;17.92;61.29;100906.56;5306739;28;20453;-79
2023/07/03 08:08:55;;;;;;;22.67;6.53;;;;;;;17.76;59.61;100901.03;5313906;28;20034;-79
2023/07/03 08:11:29;;;;;;;20.13;5.37;;;;;;;17.86;60.29;100896.25;5309345;28;20028;-80
2023/07/03 08:14:01;;;;;;;21.65;6.07;;;;;;;17.94;60.96;100894.16;5305798;28;20053;-81
2023/07/03 08:16:32;;;;;;;22.23;5.30;;;;;;;18.03;59.73;100921.94;5305194;28;20036;-81
2023/07/03 08:19:03;;;;;;;21.17;7.03;;;;;;;17.80;59.83;100907.03;5304616;28;20035;-82
2023/07/03 08:21:35;;;;;;;24.50;6.33;;;;;;;17.67;61.27;100917.22;5306132;28;20031;-83
2023/07/03 08:24:06;;;;;;;19.27;4.73;;;;;;;17.60;60.86;100921.88;5305641;28;20036;-82
2023/07/03 08:26:37;;;;;;;20.97;5.50;;;;;;;17.49;60.58;100930.22;5304653;28;20412;-82
2023/07/03 08:29:09;;;;;;;22.40;7.20;;;;;;;17.50;62.70;100912.66;5305595;28;20095;-83
2023/07/03 08:31:40;;;;;;;18.30;5.97;;;;;;;17.58;59.97;100923.72;5306049;28;20047;-83
2023/07/03 08:34:12;;;;;;;14.87;4.93;;;;;;;17.54;58.67;100937.94;5305903;28;20043;-83
2023/07/03 08:36:43;;;;;;;17.43;5.13;;;;;;;17.88;58.88;100926.06;5305266;28;20524;-81
2023/07/03 08:39:15;;;;;;;17.83;6.67;;;;;;;17.96;58.24;100925.75;5305222;28;20036;-83
2023/07/03 08:42:00;;;;;;;20.27;5.00;;;;;;;18.19;58.64;100928.31;5305275;28;20549;-80
2023/07/03 08:44:32;;;;;;;13.85;4.22;;;;;;;18.01;57.15;100931.69;5305174;28;20028;-84
2023/07/03 08:47:06;;;;;;;20.63;5.50;;;;;;;18.33;56.59;100925.06;5303489;28;20024;-80
2023/07/03 08:49:39;;;;;;;19.48;5.05;;;;;;;18.48;57.33;100931.47;5304731;28;20024;-82
2023/07/03 08:52:15;;;;;;;21.15;5.38;;;;;;;18.44;55.89;100923.75;5303594;28;20039;-83
2023/07/03 08:54:49;;;;;;;18.25;5.43;;;;;;;18.58;55.24;100922.22;5304987;28;20036;-84
2023/07/03 08:57:21;;;;;;;20.52;5.82;;;;;;;18.20;55.64;100921.22;5303287;28;20028;-82
2023/07/03 08:59:53;;;;;;;14.90;5.40;;;;;;;17.95;56.23;100924.03;5304042;28;20471;-80
2023/07/03 09:02:40;;;;;;;16.73;4.97;;;;;;;18.15;56.84;100925.84;5304718;28;20462;-81
2023/07/03 09:05:26;;;;;;;17.13;5.95;;;;;;;18.16;56.51;100927.53;5305150;28;20123;-83
2023/07/03 09:08:02;;;;;;;18.85;5.32;;;;;;;18.32;56.35;100920.72;5304881;28;20032;-83
2023/07/03 09:10:37;;;;;;;13.98;4.93;;;;;;;18.48;55.41;100926.19;5304736;28;20020;-83
2023/07/03 09:13:15;;;;;;;16.63;5.95;;;;;;;18.51;54.30;100931.31;5304747;28;20020;-79
2023/07/03 09:15:58;;;;;;;14.65;5.05;;;;;;;18.58;53.70;100924.00;5304640;28;20033;-79
2023/07/03 09:18:42;;;;;;;20.92;6.13;;;;;;;19.00;53.62;100920.38;5305752;28;20039;-82
2023/07/03 09:21:13;;;;;;;16.52;5.88;;;;;;;19.28;52.20;100912.00;5304580;28;20464;-81
2023/07/03 09:24:07;;;;;;;15.80;5.57;;;;;;;19.35;51.86;100909.09;5307098;28;20032;-81
2023/07/03 09:26:48;;;;;;;17.77;5.43;;;;;;;19.46;51.65;100914.72;5308432;28;20092;-83
2023/07/03 09:29:19;;;;;;;13.88;5.40;;;;;;;19.25;53.64;100909.50;5311372;28;20455;-81
2023/07/03 09:31:52;;;;;;;13.85;5.43;;;;;;;19.26;53.04;100918.31;5308746;28;20042;-83
2023/07/03 09:34:24;;;;;;;23.73;6.28;;;;;;;18.88;53.54;100913.84;5307526;28;20210;-82
2023/07/03 09:37:01;;;;;;;18.55;5.75;;;;;;;18.92;53.25;100919.88;5306781;28;20542;-80
2023/07/03 09:39:33;;;;;;;16.52;5.40;;;;;;;19.04;54.19;100921.09;5309962;28;20137;-81
2023/07/03 09:42:06;;;;;;;18.45;6.03;;;;;;;19.44;51.74;100940.38;5310376;28;20043;-83
2023/07/03 09:44:41;;;;;;;16.50;5.25;;;;;;;19.08;50.59;100926.16;5309890;28;20112;-85
2023/07/03 09:47:21;;;;;;;12.98;4.97;;;;;;;19.20;51.39;100927.38;5310119;28;20406;-82
2023/07/03 09:49:53;;;;;;;17.17;5.78;;;;;;;19.52;52.01;100919.72;5307719;28;20527;-80
2023/07/03 09:52:25;;;;;;;13.17;5.47;;;;;;;19.03;50.79;100928.19;5309103;28;20111;-87
2023/07/03 09:54:58;;;;;;;;;;;;;;;19.49;49.80;100925.16;5308827;28;20048;-83
2023/07/03 09:57:33;;;;;;;16.63;5.65;;;;;;;19.16;48.21;100923.19;5308551;28;19916;-81
2023/07/03 10:00:11;;;;;;;17.23;5.47;;;;;;;19.06;48.93;100928.03;5308309;28;20488;-81
2023/07/03 10:02:43;;;;;;;21.35;5.88;;;;;;;19.20;49.25;100921.25;5307872;28;20020;-80
2023/07/03 10:05:17;;;;;;;15.23;6.38;;;;;;;19.80;50.83;100923.69;5307807;28;20036;-82
2023/07/03 10:07:48;;;;;;;15.13;5.43;;;;;;;20.46;47.15;100924.78;5307877;28;20368;-84
2023/07/03 10:10:21;;;;;;;13.60;4.90;;;;;;;21.09;44.84;100924.09;5308021;28;20036;-83
2023/07/03 10:13:26;;;;;;;17.05;5.15;;;;;;;21.37;42.90;100946.47;5308778;28;20024;-83
2023/07/03 10:15:59;;;;;;;10.98;4.90;;;;;;;21.13;41.71;100934.47;5299049;28;20040;-80
2023/07/03 10:18:33;;;;;;;15.25;4.97;;;;;;;22.41;40.67;100929.00;5308318;28;20042;-80
2023/07/03 10:21:08;;;;;;;14.93;4.80;;;;;;;22.98;39.38;100930.00;5313458;28;20036;-85
2023/07/03 10:23:41;;;;;;;15.15;5.15;;;;;;;23.42;37.10;100940.47;5322831;28;20036;-83
2023/07/03 10:26:37;;;;;;;15.02;5.20;;;;;;;23.85;36.01;100955.50;5321967;28;20061;-81
2023/07/03 10:29:17;;;;;;;15.60;5.32;;;;;;;22.43;38.22;100942.19;5313262;28;20051;-81
2023/07/03 10:31:56;;;;;;;14.55;4.97;;;;;;;21.28;42.12;100946.03;5312066;28;20053;-83
2023/07/03 10:34:38;;;;;;;11.40;4.93;;;;;;;20.36;42.38;100945.59;5310605;28;20024;-78
2023/07/03 10:37:12;;;;;;;16.17;5.18;;;;;;;20.13;44.58;100944.13;5310192;28;20028;-80
2023/07/03 10:39:59;;;;;;;9.45;4.60;;;;;;;21.57;42.09;100932.09;5307893;28;20042;-81
2023/07/03 10:42:35;;;;;;;15.95;4.85;;;;;;;21.19;40.94;100948.31;5307896;28;20035;-78
2023/07/03 10:45:13;;;;;;;13.65;4.78;;;;;;;20.35;41.69;100939.44;5307368;28;20028;-84
2023/07/03 10:47:53;;;;;;;14.07;4.80;;;;;;;20.20;44.11;100942.88;5306635;28;20028;-82
2023/07/03 10:50:31;;;;;;;13.80;4.90;;;;;;;19.96;42.98;100948.44;5305766;28;20043;-79
2023/07/03 10:53:31;;;;;;;13.30;4.40;;;;;;;19.89;43.07;100960.28;5306936;28;20047;-84
2023/07/03 10:56:16;;;;;;;20.40;6.53;;;;;;;19.93;42.26;100956.56;5308894;28;20115;-84
2023/07/03 10:59:12;;;;;;;17.08;3.95;;;;;;;20.75;41.06;100944.47;5310949;28;20498;-82
2023/07/03 11:02:05;;;;;;;10.07;4.15;;;;;;;22.04;40.40;100947.09;5307266;28;20028;-82
2023/07/03 11:04:46;;;;;;;;;;;;;;;24.20;37.00;100949.63;5306372;28;20085;-80
2023/07/03 11:07:21;;;;;;;18.23;4.53;;;;;;;24.91;33.34;100942.97;5305829;28;19957;-84
2023/07/03 11:10:00;;;;;;;13.55;4.57;;;;;;;25.42;32.76;100934.03;5307364;28;20032;-83
2023/07/03 11:12:41;;;;;;;12.35;3.30;;;;;;;25.40;31.75;100953.78;5307852;28;20032;-84
2023/07/03 11:15:37;;;;;;;9.38;3.70;;;;;;;24.85;32.50;100953.22;5307228;28;20028;-82
2023/07/03 11:18:18;;;;;;;15.07;4.45;;;;;;;23.38;35.20;100954.09;5306477;28;20028;-82
2023/07/03 11:21:08;;;;;;;9.18;3.90;;;;;;;22.58;35.41;100952.75;5306331;28;20028;-88
2023/07/03 11:23:50;;;;;;;16.40;4.18;;;;;;;21.40;36.80;100946.31;5306007;28;20379;-83
2023/07/03 11:26:32;;;;;;;12.02;4.03;;;;;;;20.53;38.12;100945.59;5306806;28;20110;-84
2023/07/03 11:29:06;;;;;;;14.00;3.20;;;;;;;20.01;38.60;100957.03;5305668;28;20028;-84
2023/07/03 11:31:42;;;;;;;11.77;3.80;;;;;;;20.01;38.23;100943.81;5306913;28;20761;-84
2023/07/03 11:34:15;;;;;;;8.60;3.20;;;;;;;20.50;38.59;100951.03;5307727;28;20074;-82
2023/07/03 11:36:51;;;;;;;12.20;3.85;;;;;;;21.77;38.21;100944.25;5307251;28;20020;-84
2023/07/03 11:39:33;;;;;;;12.63;3.70;;;;;;;21.81;36.27;100943.97;5308510;28;20028;-83
2023/07/03 11:42:05;;;;;;;8.90;3.30;;;;;;;23.07;36.58;100943.59;5307258;28;20024;-79
2023/07/03 11:44:41;;;;;;;;;;;;;;;24.90;33.39;100946.56;5306025;28;20036;-85
2023/07/03 11:47:28;;;;;;;11.68;3.67;;;;;;;23.93;33.55;100947.84;5305209;28;19908;-83
2023/07/03 11:50:00;;;;;;;11.68;3.33;;;;;;;23.30;33.81;100942.13;5306216;28;20024;-81